Time;durP1;ratioP1;P1;durP2;ratioP2;P2;SDS_P1;SDS_P2;PMS_P1;PMS_P2;Temp;Humidity;BMP_temperature;BMP_pressure;BME280_temperature;BME280_humidity;BME280_pressure;Samples;Min_cycle;Max_cycle;Signal;HPM_P1;HPM_P2
2020/12/08 00:00:16;;;;;;;19.97;17.83;;;2.70;99.90;;;;;;5033493;28;20479;-68
2020/12/08 00:02:43;;;;;;;21.40;18.30;;;2.60;99.90;;;;;;5033615;28;20437;-68
2020/12/08 00:05:10;;;;;;;22.10;17.23;;;2.60;99.90;;;;;;5032860;28;20448;-67
2020/12/08 00:07:36;;;;;;;18.97;16.97;;;2.60;99.90;;;;;;5031650;28;20480;-68
2020/12/08 00:10:04;;;;;;;22.23;18.47;;;2.60;99.90;;;;;;5031502;28;20456;-68
2020/12/08 00:12:30;;;;;;;17.43;15.57;;;2.60;99.90;;;;;;5032167;28;20448;-68
2020/12/08 00:14:57;;;;;;;20.47;16.63;;;2.60;99.90;;;;;;5032506;28;20449;-67
2020/12/08 00:17:23;;;;;;;18.70;15.57;;;2.60;99.90;;;;;;5033454;28;20937;-69
2020/12/08 00:19:49;;;;;;;21.23;15.50;;;2.60;99.90;;;;;;5033201;28;20465;-68
2020/12/08 00:22:17;;;;;;;19.87;15.40;;;2.60;99.90;;;;;;5033641;28;20448;-69
2020/12/08 00:24:43;;;;;;;17.67;15.73;;;2.60;99.90;;;;;;5033514;28;20453;-68
2020/12/08 00:27:10;;;;;;;19.47;16.27;;;2.60;99.90;;;;;;5033156;28;20483;-69
2020/12/08 00:29:37;;;;;;;21.10;18.00;;;2.60;99.90;;;;;;5033609;28;20826;-69
2020/12/08 00:32:04;;;;;;;20.40;17.63;;;2.50;99.90;;;;;;5033237;28;20443;-68
2020/12/08 00:34:31;;;;;;;19.50;16.07;;;2.50;99.90;;;;;;5033866;28;20443;-68
2020/12/08 00:36:57;;;;;;;19.00;15.80;;;2.50;99.90;;;;;;5033517;28;20441;-69
2020/12/08 00:39:24;;;;;;;21.90;16.20;;;2.50;99.90;;;;;;5033486;28;20441;-68
2020/12/08 00:41:50;;;;;;;22.07;16.47;;;2.50;99.90;;;;;;5033087;28;20447;-69
2020/12/08 00:44:17;;;;;;;18.13;15.70;;;2.50;99.90;;;;;;5033280;28;20449;-69
2020/12/08 00:46:47;;;;;;;23.33;19.10;;;2.60;99.90;;;;;;5032998;28;20998;-69
2020/12/08 00:49:13;;;;;;;19.60;16.70;;;2.60;99.90;;;;;;5032976;28;20658;-70
2020/12/08 00:51:40;;;;;;;19.60;16.37;;;2.70;99.90;;;;;;5032226;28;20921;-68
2020/12/08 00:54:06;;;;;;;20.10;16.50;;;2.60;99.90;;;;;;5032059;28;20792;-69
2020/12/08 00:56:33;;;;;;;18.37;14.70;;;2.70;99.90;;;;;;5032330;28;20452;-68
2020/12/08 00:58:59;;;;;;;22.90;17.97;;;2.70;99.90;;;;;;5032388;28;20444;-69
2020/12/08 01:01:26;;;;;;;21.13;16.30;;;2.70;99.90;;;;;;5031991;28;20615;-69
2020/12/08 01:03:52;;;;;;;17.93;15.43;;;2.60;99.90;;;;;;5032410;28;20445;-69
2020/12/08 01:06:18;;;;;;;20.67;17.60;;;2.60;99.90;;;;;;5032891;28;20451;-68
2020/12/08 01:08:45;;;;;;;21.27;16.70;;;2.60;99.90;;;;;;5032804;28;20480;-69
2020/12/08 01:11:11;;;;;;;23.03;17.77;;;2.60;99.90;;;;;;5032133;28;20461;-69
2020/12/08 01:13:39;;;;;;;21.17;17.60;;;2.60;99.90;;;;;;5032512;28;20464;-69
2020/12/08 01:16:06;;;;;;;21.23;17.07;;;2.50;99.90;;;;;;5032215;28;20436;-69
2020/12/08 01:18:32;;;;;;;22.37;17.20;;;2.50;99.90;;;;;;5032265;28;20437;-69
2020/12/08 01:20:59;;;;;;;19.60;17.50;;;2.60;99.90;;;;;;5036249;28;20494;-69
2020/12/08 01:23:25;;;;;;;20.00;15.03;;;2.60;99.90;;;;;;5039205;28;20445;-69
2020/12/08 01:25:51;;;;;;;21.50;16.40;;;2.70;99.90;;;;;;5038285;28;20441;-69
2020/12/08 01:28:18;;;;;;;21.90;17.90;;;2.70;99.90;;;;;;5036533;28;20488;-69
2020/12/08 01:30:45;;;;;;;19.43;16.63;;;2.70;99.90;;;;;;5036306;28;20468;-69
2020/12/08 01:33:12;;;;;;;22.40;17.43;;;2.80;99.90;;;;;;5038336;28;20448;-69
2020/12/08 01:35:38;;;;;;;21.07;16.40;;;2.80;99.90;;;;;;5036887;28;20452;-69
2020/12/08 01:38:04;;;;;;;22.10;17.00;;;2.90;99.90;;;;;;5036264;28;20443;-69
2020/12/08 01:40:31;;;;;;;19.93;15.97;;;2.90;99.90;;;;;;5036851;28;20469;-69
2020/12/08 01:42:58;;;;;;;22.40;17.53;;;3.00;99.90;;;;;;5039581;28;20946;-69
2020/12/08 01:45:24;;;;;;;20.30;16.23;;;3.00;99.90;;;;;;5038568;28;20441;-68
2020/12/08 01:47:51;;;;;;;20.37;17.77;;;3.10;99.90;;;;;;5038321;28;20480;-69
2020/12/08 01:50:19;;;;;;;23.00;16.53;;;3.10;99.90;;;;;;5041081;28;20465;-68
2020/12/08 01:52:45;;;;;;;18.70;15.83;;;3.20;99.90;;;;;;5041239;28;20950;-68
2020/12/08 01:55:14;;;;;;;20.40;14.77;;;3.20;99.90;;;;;;5034354;28;20448;-67
2020/12/08 01:57:41;;;;;;;19.93;17.23;;;3.20;99.90;;;;;;5034556;28;20456;-68
2020/12/08 02:00:07;;;;;;;21.13;17.00;;;3.30;99.90;;;;;;5034414;28;20473;-68
2020/12/08 02:02:33;;;;;;;21.30;18.27;;;3.30;99.90;;;;;;5034262;28;20441;-67
2020/12/08 02:05:01;;;;;;;23.30;17.93;;;3.30;99.90;;;;;;5034198;28;20844;-67
2020/12/08 02:07:28;;;;;;;20.30;17.40;;;3.40;99.90;;;;;;5034078;28;20484;-67
2020/12/08 02:09:54;;;;;;;21.90;17.17;;;3.40;99.90;;;;;;5033847;28;20540;-67
2020/12/08 02:12:21;;;;;;;25.40;19.27;;;3.40;99.90;;;;;;5034277;28;20448;-67
2020/12/08 02:14:47;;;;;;;24.10;17.30;;;3.50;99.90;;;;;;5034157;28;20447;-67
2020/12/08 02:17:13;;;;;;;21.80;16.70;;;3.50;99.90;;;;;;5036130;28;20444;-68
2020/12/08 02:19:40;;;;;;;20.53;16.53;;;3.60;99.90;;;;;;5040844;28;20461;-67
2020/12/08 02:22:07;;;;;;;23.40;17.33;;;3.60;99.90;;;;;;5041889;28;20456;-68
2020/12/08 02:24:33;;;;;;;22.00;17.60;;;3.60;99.90;;;;;;5041522;28;20459;-69
2020/12/08 02:26:59;;;;;;;20.53;16.57;;;3.60;99.90;;;;;;5038416;28;20476;-69
2020/12/08 02:29:26;;;;;;;18.93;14.97;;;3.60;99.90;;;;;;5039450;28;20456;-69
2020/12/08 02:31:52;;;;;;;21.63;16.50;;;3.60;99.90;;;;;;5038974;28;20452;-70
2020/12/08 02:34:18;;;;;;;22.10;17.00;;;3.60;99.90;;;;;;5038627;28;20449;-68
2020/12/08 02:36:46;;;;;;;19.00;17.00;;;3.60;99.90;;;;;;5037664;28;20437;-67
2020/12/08 02:39:13;;;;;;;20.90;17.73;;;3.50;99.90;;;;;;5037871;28;20441;-68
2020/12/08 02:41:39;;;;;;;22.70;18.67;;;3.40;99.90;;;;;;5039137;28;20806;-69
2020/12/08 02:44:06;;;;;;;20.93;16.47;;;3.40;99.90;;;;;;5040911;28;20935;-69
2020/12/08 02:46:32;;;;;;;24.23;18.70;;;3.40;99.90;;;;;;5040486;28;20941;-69
2020/12/08 02:48:58;;;;;;;26.30;18.57;;;3.40;99.90;;;;;;5037923;28;21004;-68
2020/12/08 02:51:25;;;;;;;21.90;17.20;;;3.40;99.90;;;;;;5037026;28;20468;-67
2020/12/08 02:53:51;;;;;;;19.20;17.10;;;3.40;99.90;;;;;;5038351;28;20441;-69
2020/12/08 02:56:23;;;;;;;23.30;17.80;;;3.40;99.90;;;;;;5039279;28;20453;-68
2020/12/08 02:58:50;;;;;;;21.90;17.27;;;3.40;99.90;;;;;;5039912;28;20436;-69
2020/12/08 03:01:19;;;;;;;23.93;17.53;;;3.50;99.90;;;;;;5040023;28;20473;-69
2020/12/08 03:03:45;;;;;;;25.23;19.63;;;3.50;99.90;;;;;;5040895;28;20441;-68
2020/12/08 03:06:11;;;;;;;25.37;19.77;;;3.50;99.90;;;;;;5042187;28;20449;-69
2020/12/08 03:08:37;;;;;;;26.63;21.13;;;3.50;99.90;;;;;;5040621;28;20487;-68
2020/12/08 03:11:04;;;;;;;25.37;20.50;;;3.60;99.90;;;;;;5037895;28;20467;-69
2020/12/08 03:13:32;;;;;;;25.97;20.23;;;3.60;99.90;;;;;;5038867;28;20441;-69
2020/12/08 03:15:59;;;;;;;22.80;19.90;;;3.60;99.90;;;;;;5032949;28;20441;-68
2020/12/08 03:18:25;;;;;;;25.03;18.80;;;3.60;99.90;;;;;;5032926;28;20436;-68
2020/12/08 03:20:51;;;;;;;24.50;18.13;;;3.60;99.90;;;;;;5032408;28;20815;-68
2020/12/08 03:23:17;;;;;;;24.70;20.43;;;3.70;99.90;;;;;;5032803;28;20530;-68
2020/12/08 03:25:44;;;;;;;26.00;19.47;;;3.70;99.90;;;;;;5032756;28;20441;-68
2020/12/08 03:28:10;;;;;;;22.23;19.47;;;3.70;99.90;;;;;;5032611;28;20492;-68
2020/12/08 03:30:37;;;;;;;25.17;19.63;;;3.80;99.90;;;;;;5032264;28;20472;-68
2020/12/08 03:33:03;;;;;;;24.10;20.40;;;3.80;99.90;;;;;;5032486;28;20448;-68
2020/12/08 03:35:30;;;;;;;22.27;18.00;;;3.80;99.90;;;;;;5032565;28;20445;-68
2020/12/08 03:37:56;;;;;;;21.67;19.30;;;3.80;99.90;;;;;;5032465;28;20439;-68
2020/12/08 03:40:22;;;;;;;25.03;19.97;;;3.90;99.90;;;;;;5032139;28;20457;-68
2020/12/08 03:42:48;;;;;;;24.33;20.23;;;3.90;99.90;;;;;;5032484;28;20459;-68
2020/12/08 03:45:14;;;;;;;25.07;20.47;;;3.90;99.90;;;;;;5032345;28;20954;-68
2020/12/08 03:47:42;;;;;;;24.23;18.90;;;3.90;99.90;;;;;;5032170;28;20504;-68
2020/12/08 03:50:08;;;;;;;25.80;20.50;;;4.00;99.90;;;;;;5032022;28;20457;-68
2020/12/08 03:52:34;;;;;;;24.70;19.00;;;4.00;99.90;;;;;;5032267;28;20456;-68
2020/12/08 03:55:00;;;;;;;23.93;19.53;;;4.00;99.90;;;;;;5032179;28;20445;-69
2020/12/08 03:57:26;;;;;;;28.60;21.70;;;4.00;99.90;;;;;;5032246;28;20436;-68
2020/12/08 03:59:53;;;;;;;25.20;19.57;;;4.00;99.90;;;;;;5038127;28;20869;-69
2020/12/08 04:02:19;;;;;;;23.03;17.93;;;4.10;99.90;;;;;;5040805;28;20473;-70
2020/12/08 04:04:49;;;;;;;24.47;19.97;;;4.10;99.90;;;;;;5039565;28;20831;-68
2020/12/08 04:07:16;;;;;;;21.70;19.20;;;4.10;99.90;;;;;;5039482;28;20490;-69
2020/12/08 04:09:42;;;;;;;25.80;21.40;;;4.10;99.90;;;;;;5037690;28;20464;-69
2020/12/08 04:12:08;;;;;;;31.23;24.00;;;4.20;99.90;;;;;;5032625;28;20437;-67
2020/12/08 04:14:34;;;;;;;25.07;20.07;;;4.10;99.90;;;;;;5031886;28;20466;-68
2020/12/08 04:17:01;;;;;;;21.00;17.97;;;4.20;99.90;;;;;;5031885;28;20445;-67
2020/12/08 04:19:27;;;;;;;25.53;21.27;;;4.20;99.90;;;;;;5031805;28;20503;-67
2020/12/08 04:21:59;;;;;;;23.40;19.93;;;4.20;99.90;;;;;;5031575;28;20946;-68
2020/12/08 04:24:25;;;;;;;24.57;20.40;;;4.20;99.90;;;;;;5031791;28;20950;-67
2020/12/08 04:26:52;;;;;;;27.20;20.80;;;4.20;99.90;;;;;;5031741;28;20447;-68
2020/12/08 04:29:18;;;;;;;29.33;21.73;;;4.20;99.90;;;;;;5031603;28;20437;-67
2020/12/08 04:31:44;;;;;;;27.47;22.60;;;4.30;99.90;;;;;;5031444;28;20443;-67
2020/12/08 04:34:11;;;;;;;25.30;21.03;;;4.30;99.90;;;;;;5031744;28;20938;-67
2020/12/08 04:36:37;;;;;;;23.00;20.50;;;4.30;99.90;;;;;;5031659;28;20445;-67
2020/12/08 04:39:04;;;;;;;25.40;21.43;;;4.20;99.90;;;;;;5031710;28;20429;-67
2020/12/08 04:41:30;;;;;;;25.07;20.73;;;4.30;99.90;;;;;;5031071;28;20463;-68
2020/12/08 04:43:56;;;;;;;28.13;20.20;;;4.20;99.90;;;;;;5031435;28;20441;-67
2020/12/08 04:46:24;;;;;;;24.93;20.17;;;4.20;99.90;;;;;;5031466;28;20437;-68
2020/12/08 04:48:51;;;;;;;23.70;19.73;;;4.30;99.90;;;;;;5031367;28;20831;-67
2020/12/08 04:51:18;;;;;;;25.10;21.20;;;4.30;99.90;;;;;;5031132;28;20465;-68
2020/12/08 04:53:47;;;;;;;25.67;20.07;;;4.40;99.90;;;;;;5031451;28;20448;-68
2020/12/08 04:56:14;;;;;;;24.70;20.17;;;4.40;99.90;;;;;;5035214;28;20822;-67
2020/12/08 04:58:42;;;;;;;29.63;22.43;;;4.40;99.90;;;;;;5035435;28;20441;-67
2020/12/08 05:01:08;;;;;;;24.83;20.00;;;4.40;99.90;;;;;;5034948;28;20492;-67
2020/12/08 05:03:36;;;;;;;32.40;21.20;;;4.40;99.90;;;;;;5035312;28;20445;-67
2020/12/08 05:06:05;;;;;;;28.73;21.03;;;4.40;99.90;;;;;;5035237;28;20441;-67
2020/12/08 05:08:31;;;;;;;27.20;21.40;;;4.40;99.90;;;;;;5035362;28;20507;-67
2020/12/08 05:11:07;;;;;;;28.60;22.50;;;4.40;99.90;;;;;;5034973;28;20463;-67
2020/12/08 05:13:34;;;;;;;26.07;20.90;;;4.40;99.90;;;;;;5035212;28;20436;-67
2020/12/08 05:16:00;;;;;;;28.97;21.43;;;4.50;99.90;;;;;;5035040;28;20955;-67
2020/12/08 05:18:27;;;;;;;28.43;21.77;;;4.50;99.90;;;;;;5035126;28;20856;-68
2020/12/08 05:20:53;;;;;;;25.50;20.43;;;4.50;99.90;;;;;;5034710;28;20468;-68
2020/12/08 05:23:20;;;;;;;27.13;20.30;;;4.50;99.90;;;;;;5034926;28;20451;-68
2020/12/08 05:25:46;;;;;;;28.27;20.43;;;4.50;99.90;;;;;;5035038;28;20803;-68
2020/12/08 05:28:18;;;;;;;29.77;21.77;;;4.50;99.90;;;;;;5034948;28;20846;-68
2020/12/08 05:30:45;;;;;;;26.87;21.10;;;4.50;99.90;;;;;;5034660;28;20460;-68
2020/12/08 05:33:16;;;;;;;28.40;21.77;;;4.50;99.90;;;;;;5034796;28;20460;-68
2020/12/08 05:35:46;;;;;;;27.73;22.53;;;4.50;99.90;;;;;;5034889;28;20445;-67
2020/12/08 05:38:15;;;;;;;25.50;20.50;;;4.60;99.90;;;;;;5034792;28;20436;-67
2020/12/08 05:40:44;;;;;;;28.80;21.10;;;4.60;99.90;;;;;;5034416;28;20460;-67
2020/12/08 05:43:10;;;;;;;27.40;22.43;;;4.70;99.90;;;;;;5034581;28;20446;-67
2020/12/08 05:45:37;;;;;;;26.43;20.37;;;4.70;99.90;;;;;;5034639;28;20451;-67
2020/12/08 05:48:04;;;;;;;25.00;19.67;;;4.70;99.90;;;;;;5034550;28;20480;-67
2020/12/08 05:50:31;;;;;;;27.50;21.03;;;4.70;99.90;;;;;;5034131;28;20532;-67
2020/12/08 05:52:58;;;;;;;25.87;19.80;;;4.60;99.90;;;;;;5034473;28;20445;-67
2020/12/08 05:55:26;;;;;;;21.43;17.20;;;4.60;99.90;;;;;;5034518;28;20441;-67
2020/12/08 05:57:52;;;;;;;25.70;19.43;;;4.60;99.90;;;;;;5034119;28;20444;-65
2020/12/08 06:00:25;;;;;;;22.73;19.13;;;4.60;99.90;;;;;;5033973;28;20491;-65
2020/12/08 06:02:52;;;;;;;24.00;15.93;;;4.60;99.90;;;;;;5034406;28;20883;-67
2020/12/08 06:05:27;;;;;;;22.37;17.83;;;4.60;99.90;;;;;;5033927;28;20528;-67
2020/12/08 06:07:53;;;;;;;20.40;17.43;;;4.70;99.90;;;;;;5033584;28;20997;-67
2020/12/08 06:10:19;;;;;;;20.50;16.77;;;4.80;99.90;;;;;;5037965;28;20463;-69
2020/12/08 06:12:57;;;;;;;19.43;17.40;;;4.80;99.90;;;;;;5041662;28;20433;-70
2020/12/08 06:15:25;;;;;;;20.70;16.80;;;4.90;99.90;;;;;;5036718;28;20441;-69
2020/12/08 06:17:51;;;;;;;22.00;17.17;;;4.90;99.90;;;;;;5033172;28;20931;-68
2020/12/08 06:20:19;;;;;;;23.17;15.07;;;5.00;99.90;;;;;;5032866;28;20563;-69
2020/12/08 06:22:56;;;;;;;16.93;15.13;;;5.00;99.90;;;;;;5032822;28;20444;-68
2020/12/08 06:25:23;;;;;;;19.53;17.43;;;5.10;99.90;;;;;;5032794;28;20441;-65
2020/12/08 06:27:49;;;;;;;17.40;15.70;;;5.10;99.90;;;;;;5032411;28;20485;-68
2020/12/08 06:30:20;;;;;;;16.50;14.80;;;5.10;99.90;;;;;;5031997;28;20988;-67
2020/12/08 06:32:47;;;;;;;15.93;14.40;;;5.20;99.90;;;;;;5032563;28;20441;-66
2020/12/08 06:35:15;;;;;;;16.80;15.00;;;5.20;99.90;;;;;;5032475;28;20443;-66
2020/12/08 06:37:47;;;;;;;17.93;16.20;;;5.20;99.90;;;;;;5033188;28;20914;-67
2020/12/08 06:40:15;;;;;;;19.57;15.00;;;5.30;99.90;;;;;;5032867;28;20462;-67
2020/12/08 06:42:42;;;;;;;21.33;16.07;;;5.30;99.90;;;;;;5033297;28;20510;-67
2020/12/08 06:45:10;;;;;;;16.70;15.00;;;5.30;99.90;;;;;;5033190;28;20449;-66
2020/12/08 06:47:37;;;;;;;19.50;16.30;;;5.30;99.90;;;;;;5033061;28;20571;-66
2020/12/08 06:50:05;;;;;;;18.17;16.27;;;5.30;99.90;;;;;;5032877;28;20958;-67
2020/12/08 06:52:31;;;;;;;20.37;16.23;;;5.30;99.90;;;;;;5033016;28;20542;-67
2020/12/08 06:54:59;;;;;;;20.00;14.80;;;5.30;99.90;;;;;;5032979;28;20433;-67
2020/12/08 06:57:26;;;;;;;19.07;17.10;;;5.40;99.90;;;;;;5032829;28;20451;-67
2020/12/08 07:00:06;;;;;;;18.17;14.63;;;5.40;99.90;;;;;;5032713;28;20469;-67
2020/12/08 07:02:48;;;;;;;17.63;15.83;;;5.40;99.90;;;;;;5033047;28;20444;-67
2020/12/08 07:05:15;;;;;;;17.57;15.77;;;5.40;99.90;;;;;;5032882;28;20453;-67
2020/12/08 07:07:43;;;;;;;16.27;14.57;;;5.40;99.90;;;;;;5032960;28;20500;-67
2020/12/08 07:10:09;;;;;;;16.60;15.10;;;5.40;99.90;;;;;;5032478;28;20756;-67
2020/12/08 07:12:45;;;;;;;16.47;14.97;;;5.40;99.90;;;;;;5032736;28;20946;-67
2020/12/08 07:15:18;;;;;;;17.33;15.60;;;5.40;99.90;;;;;;5032638;28;20451;-67
2020/12/08 07:17:45;;;;;;;16.43;15.27;;;5.50;99.90;;;;;;5032318;28;20783;-67
2020/12/08 07:20:11;;;;;;;15.50;14.00;;;5.50;99.90;;;;;;5032291;28;20457;-67
2020/12/08 07:22:43;;;;;;;17.87;16.37;;;5.50;99.90;;;;;;5032513;28;20448;-67
2020/12/08 07:25:11;;;;;;;15.13;14.03;;;5.50;99.90;;;;;;5032484;28;20475;-67
2020/12/08 07:27:42;;;;;;;16.40;15.10;;;5.50;99.90;;;;;;5032471;28;20476;-67
2020/12/08 07:30:09;;;;;;;15.40;14.03;;;5.50;99.90;;;;;;5032239;28;20457;-67
2020/12/08 07:32:35;;;;;;;16.33;15.03;;;5.50;99.90;;;;;;5032241;28;20445;-66
2020/12/08 07:35:01;;;;;;;16.10;14.90;;;5.60;99.90;;;;;;5032478;28;20451;-67
2020/12/08 07:37:27;;;;;;;17.33;15.93;;;5.60;99.90;;;;;;5032218;28;20441;-67
2020/12/08 07:39:54;;;;;;;15.77;14.67;;;5.60;99.90;;;;;;5031891;28;20457;-67
2020/12/08 07:42:20;;;;;;;16.77;15.67;;;5.60;99.90;;;;;;5032059;28;20441;-67
2020/12/08 07:44:57;;;;;;;16.57;15.30;;;5.60;99.90;;;;;;5032234;28;20448;-66
2020/12/08 07:47:23;;;;;;;18.83;17.13;;;5.60;99.90;;;;;;5031717;28;20440;-66
2020/12/08 07:49:49;;;;;;;16.37;15.17;;;5.70;99.90;;;;;;5031896;28;20461;-66
2020/12/08 07:52:17;;;;;;;16.80;15.50;;;5.70;99.90;;;;;;5032002;28;20443;-66
2020/12/08 07:54:44;;;;;;;17.17;15.73;;;5.70;99.90;;;;;;5031875;28;20441;-66
2020/12/08 07:57:10;;;;;;;17.63;16.23;;;5.70;99.90;;;;;;5031950;28;20471;-66
2020/12/08 07:59:37;;;;;;;18.47;17.10;;;5.70;99.90;;;;;;5031907;28;20756;-65
2020/12/08 08:02:04;;;;;;;18.10;16.70;;;5.70;99.90;;;;;;5031803;28;20448;-66
2020/12/08 08:04:30;;;;;;;17.43;16.13;;;5.80;99.90;;;;;;5031865;28;20445;-66
2020/12/08 08:06:57;;;;;;;18.07;16.63;;;5.80;99.90;;;;;;5031999;28;20920;-65
2020/12/08 08:09:23;;;;;;;19.93;18.37;;;5.80;99.90;;;;;;5031577;28;20485;-68
2020/12/08 08:11:50;;;;;;;18.20;16.80;;;5.80;99.90;;;;;;5031631;28;20441;-67
2020/12/08 08:14:16;;;;;;;18.80;17.30;;;5.70;99.90;;;;;;5031648;28;20441;-66
2020/12/08 08:16:42;;;;;;;18.53;17.10;;;5.70;99.90;;;;;;5031771;28;20445;-67
2020/12/08 08:19:09;;;;;;;18.90;17.30;;;5.70;99.90;;;;;;5031680;28;20433;-66
2020/12/08 08:21:36;;;;;;;17.97;16.57;;;5.70;99.90;;;;;;5031199;28;20470;-66
2020/12/08 08:24:02;;;;;;;19.87;18.27;;;5.80;99.90;;;;;;5031231;28;20440;-65
2020/12/08 08:26:28;;;;;;;17.63;16.23;;;5.80;99.90;;;;;;5031461;28;20439;-66
2020/12/08 08:28:55;;;;;;;20.10;18.60;;;5.80;99.90;;;;;;5030808;28;20484;-67
2020/12/08 08:31:21;;;;;;;19.00;17.50;;;5.80;99.90;;;;;;5031145;28;20971;-65
2020/12/08 08:33:47;;;;;;;19.20;17.60;;;5.80;99.90;;;;;;5031491;28;20441;-66
2020/12/08 08:36:14;;;;;;;19.50;17.90;;;5.80;99.90;;;;;;5031231;28;20444;-66
2020/12/08 08:38:41;;;;;;;18.90;17.40;;;5.80;99.90;;;;;;5031491;28;20924;-66
2020/12/08 08:41:07;;;;;;;19.87;18.17;;;5.90;99.90;;;;;;5031049;28;20461;-66
2020/12/08 08:43:33;;;;;;;19.33;17.93;;;5.90;99.90;;;;;;5031062;28;20443;-68
2020/12/08 08:45:59;;;;;;;20.23;18.63;;;6.00;99.90;;;;;;5031194;28;20444;-67
2020/12/08 08:48:25;;;;;;;20.03;18.37;;;6.00;99.90;;;;;;5031124;28;20481;-67
2020/12/08 08:50:52;;;;;;;20.37;18.60;;;6.00;99.90;;;;;;5031014;28;20453;-68
2020/12/08 08:53:19;;;;;;;19.03;17.37;;;6.00;99.90;;;;;;5031185;28;20579;-67
2020/12/08 08:55:46;;;;;;;18.97;17.27;;;6.00;99.90;;;;;;5031232;28;20437;-66
2020/12/08 08:58:12;;;;;;;19.60;17.87;;;6.00;99.90;;;;;;5031019;28;20938;-66
2020/12/08 09:00:38;;;;;;;19.87;18.30;;;6.00;99.90;;;;;;5030636;28;20872;-66
2020/12/08 09:03:06;;;;;;;20.83;19.03;;;6.00;99.90;;;;;;5031060;28;20445;-66
2020/12/08 09:05:33;;;;;;;21.03;18.83;;;6.10;99.90;;;;;;5031172;28;20445;-66
2020/12/08 09:07:59;;;;;;;21.47;19.67;;;6.10;99.90;;;;;;5030948;28;21012;-66
2020/12/08 09:10:26;;;;;;;19.63;17.97;;;6.10;99.90;;;;;;5030669;28;20997;-66
2020/12/08 09:12:52;;;;;;;21.87;19.87;;;6.10;99.90;;;;;;5031068;28;20445;-67
2020/12/08 09:15:19;;;;;;;22.63;20.43;;;6.10;99.90;;;;;;5031256;28;20460;-66
2020/12/08 09:17:45;;;;;;;21.07;19.23;;;6.20;99.90;;;;;;5031121;28;20444;-66
2020/12/08 09:20:11;;;;;;;21.30;19.40;;;6.30;99.90;;;;;;5030632;28;20461;-66
2020/12/08 09:22:38;;;;;;;22.23;20.33;;;6.20;99.90;;;;;;5030872;28;20965;-67
2020/12/08 09:25:04;;;;;;;22.93;20.70;;;6.30;99.90;;;;;;5030870;28;20445;-67
2020/12/08 09:27:31;;;;;;;20.77;19.03;;;6.40;99.90;;;;;;5030913;28;20451;-66
2020/12/08 09:29:58;;;;;;;21.80;19.90;;;6.40;99.90;;;;;;5030778;28;20457;-66
2020/12/08 09:32:25;;;;;;;21.20;19.30;;;6.60;99.90;;;;;;5030936;28;20523;-66
2020/12/08 09:34:52;;;;;;;21.53;19.63;;;6.60;99.90;;;;;;5030796;28;20452;-67
2020/12/08 09:37:18;;;;;;;21.43;19.70;;;6.60;99.90;;;;;;5030939;28;20445;-67
2020/12/08 09:39:44;;;;;;;20.93;19.03;;;6.60;99.90;;;;;;5030733;28;20456;-66
2020/12/08 09:42:10;;;;;;;23.50;19.73;;;6.60;99.90;;;;;;5034168;28;20851;-66
2020/12/08 09:44:38;;;;;;;23.03;21.03;;;6.70;99.90;;;;;;5034398;28;20444;-67
2020/12/08 09:47:04;;;;;;;19.87;18.17;;;6.70;99.90;;;;;;5034274;28;20437;-66
2020/12/08 09:49:30;;;;;;;22.27;20.37;;;6.70;99.90;;;;;;5034077;28;20484;-66
2020/12/08 09:51:56;;;;;;;23.23;21.20;;;6.60;99.90;;;;;;5034000;28;20437;-66
2020/12/08 09:54:23;;;;;;;20.90;19.20;;;6.70;99.90;;;;;;5034257;28;20455;-66
2020/12/08 09:56:49;;;;;;;22.03;20.27;;;6.80;99.90;;;;;;5034092;28;20437;-66
2020/12/08 09:59:15;;;;;;;24.70;22.17;;;6.90;99.90;;;;;;5033943;28;20441;-67
2020/12/08 10:01:42;;;;;;;22.30;20.43;;;7.10;99.90;;;;;;5033872;28;20441;-66
2020/12/08 10:04:08;;;;;;;23.23;21.27;;;7.30;99.90;;;;;;5034070;28;20448;-67
2020/12/08 10:06:35;;;;;;;23.30;21.50;;;7.40;99.90;;;;;;5033874;28;20437;-67
2020/12/08 10:09:01;;;;;;;21.20;19.80;;;7.60;99.90;;;;;;5033934;28;20481;-66
2020/12/08 10:11:27;;;;;;;21.70;20.00;;;7.80;99.90;;;;;;5033724;28;21016;-66
2020/12/08 10:13:54;;;;;;;21.80;20.30;;;7.80;99.90;;;;;;5033917;28;20445;-66
2020/12/08 10:16:21;;;;;;;21.53;20.00;;;7.80;99.90;;;;;;5033822;28;20445;-66
2020/12/08 10:18:49;;;;;;;22.53;20.83;;;7.80;99.90;;;;;;5033739;28;20448;-67
2020/12/08 10:21:18;;;;;;;22.93;21.00;;;7.80;99.90;;;;;;5033458;28;20464;-66
2020/12/08 10:23:44;;;;;;;20.50;19.00;;;7.80;99.90;;;;;;5033717;28;20433;-66
2020/12/08 10:26:11;;;;;;;21.10;19.50;;;7.80;99.90;;;;;;5033587;28;20471;-66
2020/12/08 10:28:37;;;;;;;22.57;21.03;;;7.80;99.90;;;;;;5033649;28;20481;-66
2020/12/08 10:31:03;;;;;;;21.50;20.07;;;7.70;99.90;;;;;;5033284;28;20461;-66
2020/12/08 10:33:30;;;;;;;21.77;20.07;;;7.90;99.90;;;;;;5033600;28;20444;-67
2020/12/08 10:35:57;;;;;;;21.70;20.00;;;8.00;99.90;;;;;;5033530;28;20445;-66
2020/12/08 10:38:24;;;;;;;21.93;20.53;;;8.00;99.90;;;;;;5033426;28;20467;-66
2020/12/08 10:40:51;;;;;;;23.03;21.17;;;8.10;99.90;;;;;;5033161;28;20983;-66
2020/12/08 10:43:19;;;;;;;20.93;19.33;;;8.20;99.90;;;;;;5033605;28;20820;-66
2020/12/08 10:45:45;;;;;;;20.67;19.40;;;8.10;99.90;;;;;;5033343;28;20445;-67
2020/12/08 10:48:11;;;;;;;21.23;19.83;;;8.20;99.90;;;;;;5033378;28;20481;-66
2020/12/08 10:50:37;;;;;;;20.83;19.53;;;8.30;99.90;;;;;;5032814;28;20464;-67
2020/12/08 10:53:05;;;;;;;22.10;20.60;;;8.30;99.90;;;;;;5032552;28;20437;-67
2020/12/08 10:55:31;;;;;;;24.27;22.53;;;8.40;99.90;;;;;;5033122;28;20939;-67
2020/12/08 10:57:58;;;;;;;21.40;20.00;;;8.60;99.90;;;;;;5033002;28;20544;-67
2020/12/08 11:00:24;;;;;;;22.67;21.20;;;8.70;99.90;;;;;;5032896;28;20724;-66
2020/12/08 11:02:50;;;;;;;21.00;19.50;;;8.80;99.90;;;;;;5032965;28;20445;-66
2020/12/08 11:05:16;;;;;;;20.30;19.13;;;8.80;99.90;;;;;;5032917;28;20448;-67
2020/12/08 11:07:43;;;;;;;20.57;19.37;;;8.80;99.20;;;;;;5032848;28;20437;-67
2020/12/08 11:10:10;;;;;;;21.13;19.83;;;8.70;98.80;;;;;;5032541;28;20564;-67
2020/12/08 11:12:36;;;;;;;20.53;19.40;;;8.60;98.20;;;;;;5032810;28;20437;-66
2020/12/08 11:15:03;;;;;;;20.80;19.70;;;8.60;98.60;;;;;;5032732;28;20441;-66
2020/12/08 11:17:31;;;;;;;21.23;19.93;;;8.60;98.70;;;;;;5032688;28;20452;-66
2020/12/08 11:19:57;;;;;;;21.37;20.00;;;8.60;98.70;;;;;;5032656;28;20515;-67
2020/12/08 11:22:23;;;;;;;20.80;19.60;;;8.50;99.60;;;;;;5032424;28;20441;-66
2020/12/08 11:24:49;;;;;;;20.17;18.90;;;8.40;99.90;;;;;;5032451;28;20445;-66
2020/12/08 11:27:17;;;;;;;19.80;18.70;;;8.40;99.90;;;;;;5032552;28;20445;-66
2020/12/08 11:29:44;;;;;;;20.83;19.43;;;8.40;99.60;;;;;;5032193;28;20480;-66
2020/12/08 11:32:11;;;;;;;21.20;19.80;;;8.40;99.50;;;;;;5032219;28;20437;-66
2020/12/08 11:34:37;;;;;;;22.20;20.90;;;8.70;99.90;;;;;;5032205;28;20433;-66
2020/12/08 11:37:03;;;;;;;21.30;20.00;;;9.00;98.80;;;;;;5032226;28;20441;-66
2020/12/08 11:39:30;;;;;;;21.40;20.10;;;9.10;98.20;;;;;;5032097;28;20460;-66
2020/12/08 11:41:56;;;;;;;21.10;19.80;;;9.20;98.40;;;;;;5031810;28;20441;-66
2020/12/08 11:44:23;;;;;;;21.47;20.07;;;9.10;98.10;;;;;;5032160;28;20441;-65
2020/12/08 11:46:50;;;;;;;22.27;20.73;;;9.30;98.50;;;;;;5032062;28;20441;-67
2020/12/08 11:49:17;;;;;;;20.57;19.40;;;9.30;97.80;;;;;;5031970;28;20949;-66
2020/12/08 11:51:43;;;;;;;20.07;19.07;;;9.40;97.00;;;;;;5031627;28;20442;-66
2020/12/08 11:54:09;;;;;;;20.90;19.47;;;9.30;96.70;;;;;;5032035;28;20447;-66
2020/12/08 11:56:36;;;;;;;21.97;20.67;;;9.50;96.50;;;;;;5031841;28;20452;-66
2020/12/08 11:59:02;;;;;;;21.37;20.17;;;9.60;96.50;;;;;;5031864;28;20445;-66
2020/12/08 12:01:30;;;;;;;21.23;20.00;;;9.50;96.60;;;;;;5031595;28;20819;-67
2020/12/08 12:03:56;;;;;;;20.80;19.60;;;9.40;96.10;;;;;;5030832;28;20951;-67
2020/12/08 12:06:22;;;;;;;20.80;19.47;;;9.20;96.20;;;;;;5031810;28;20480;-67
2020/12/08 12:08:48;;;;;;;21.27;20.07;;;9.10;96.70;;;;;;5031605;28;20477;-68
2020/12/08 12:11:15;;;;;;;20.30;19.10;;;9.10;96.70;;;;;;5031281;28;20465;-67
2020/12/08 12:13:41;;;;;;;20.03;18.93;;;9.30;96.70;;;;;;5031439;28;20922;-68
2020/12/08 12:16:07;;;;;;;20.10;19.00;;;9.70;96.10;;;;;;5031532;28;20441;-66
2020/12/08 12:18:34;;;;;;;20.60;19.50;;;9.80;95.80;;;;;;5031503;28;20437;-66
2020/12/08 12:21:01;;;;;;;20.90;19.70;;;9.70;95.30;;;;;;5031273;28;20472;-67
2020/12/08 12:23:27;;;;;;;19.13;18.13;;;9.60;94.80;;;;;;5031518;28;20441;-67
2020/12/08 12:25:53;;;;;;;20.13;19.13;;;9.30;93.70;;;;;;5031368;28;20446;-66
2020/12/08 12:28:19;;;;;;;20.30;19.30;;;9.00;92.60;;;;;;5031807;28;20488;-67
2020/12/08 12:30:45;;;;;;;18.63;17.73;;;8.80;93.20;;;;;;5031257;28;20489;-67
2020/12/08 12:33:12;;;;;;;18.37;17.47;;;8.60;93.00;;;;;;5031647;28;20457;-67